Time;durP1;ratioP1;P1;durP2;ratioP2;P2;SDS_P1;SDS_P2;PMS_P1;PMS_P2;Temp;Humidity;BMP_temperature;BMP_pressure;BME280_temperature;BME280_humidity;BME280_pressure;Samples;Min_cycle;Max_cycle;Signal;HPM_P1;HPM_P2
2022/07/12 00:01:24;;;;;;;4.75;2.10;;;13.70;99.90;;;;;;5058797;28;20133;-67
2022/07/12 00:03:49;;;;;;;5.15;1.92;;;13.60;99.90;;;;;;5059641;28;20040;-67
2022/07/12 00:06:15;;;;;;;2.40;1.20;;;13.70;99.90;;;;;;5056756;28;20040;-67
2022/07/12 00:08:40;;;;;;;3.35;1.25;;;13.70;99.90;;;;;;5073004;28;20036;-67
2022/07/12 00:11:06;;;;;;;1.65;1.13;;;13.70;99.90;;;;;;5060424;28;20052;-67
2022/07/12 00:13:32;;;;;;;1.95;1.20;;;13.50;99.90;;;;;;5057872;28;20036;-67
2022/07/12 00:15:58;;;;;;;2.65;1.30;;;13.50;99.90;;;;;;5058514;28;20033;-66
2022/07/12 00:18:24;;;;;;;3.45;1.10;;;13.50;99.90;;;;;;5046542;28;20044;-67
2022/07/12 00:20:50;;;;;;;2.05;1.20;;;13.30;99.90;;;;;;5061746;28;20051;-67
2022/07/12 00:23:16;;;;;;;2.30;1.40;;;13.20;99.90;;;;;;5057394;28;20060;-67
2022/07/12 00:25:42;;;;;;;3.60;1.40;;;13.20;99.90;;;;;;5054344;28;20103;-67
2022/07/12 00:28:07;;;;;;;2.10;1.25;;;13.20;99.90;;;;;;5055185;28;20636;-67
2022/07/12 00:30:33;;;;;;;3.08;0.80;;;13.20;99.90;;;;;;5052837;28;20035;-67
2022/07/12 00:32:59;;;;;;;2.95;1.02;;;13.20;99.90;;;;;;5061381;28;20076;-67
2022/07/12 00:35:24;;;;;;;1.50;1.00;;;13.20;99.90;;;;;;5053806;28;20127;-67
2022/07/12 00:37:50;;;;;;;1.60;0.93;;;13.10;99.90;;;;;;5071730;28;20033;-68
2022/07/12 00:40:16;;;;;;;2.17;1.33;;;13.10;99.90;;;;;;5055448;28;20055;-67
2022/07/12 00:42:41;;;;;;;3.65;1.15;;;13.00;99.90;;;;;;5055500;28;20049;-67
2022/07/12 00:45:08;;;;;;;2.90;1.55;;;13.00;99.90;;;;;;5050341;28;20041;-67
2022/07/12 00:47:44;;;;;;;1.55;1.10;;;13.00;99.90;;;;;;5055992;28;20391;-67
2022/07/12 00:50:17;;;;;;;2.75;1.52;;;13.10;99.90;;;;;;5052809;28;20533;-68
2022/07/12 00:52:50;;;;;;;4.60;1.92;;;13.10;99.90;;;;;;5053643;28;20037;-68
2022/07/12 00:55:17;;;;;;;3.35;1.08;;;13.00;99.90;;;;;;5057054;28;20102;-67
2022/07/12 00:57:44;;;;;;;2.65;0.80;;;12.90;99.90;;;;;;5059172;28;20470;-66
2022/07/12 01:00:12;;;;;;;4.32;0.80;;;12.90;99.90;;;;;;5055083;28;20036;-66
2022/07/12 01:02:38;;;;;;;4.20;0.60;;;12.70;99.90;;;;;;5061468;28;20044;-67
2022/07/12 01:05:06;;;;;;;3.55;0.85;;;12.60;99.90;;;;;;5060157;28;20041;-66
2022/07/12 01:07:32;;;;;;;46.53;2.28;;;12.40;99.90;;;;;;5059717;28;20044;-65
2022/07/12 01:09:59;;;;;;;43.47;3.05;;;12.20;99.90;;;;;;5054408;28;20047;-66
2022/07/12 01:12:25;;;;;;;47.97;2.65;;;12.20;99.90;;;;;;5056058;28;20079;-66
2022/07/12 01:14:51;;;;;;;11.55;1.50;;;12.10;99.90;;;;;;5074594;28;20044;-65
2022/07/12 01:17:21;;;;;;;273.08;8.32;;;12.00;99.90;;;;;;5056037;28;20043;-65
2022/07/12 01:19:52;;;;;;;100.20;3.97;;;12.00;99.90;;;;;;5060897;28;20033;-64
2022/07/12 01:22:18;;;;;;;91.10;3.63;;;12.00;99.90;;;;;;5059386;28;20044;-65
2022/07/12 01:24:45;;;;;;;473.00;14.77;;;12.00;99.90;;;;;;5061524;28;20045;-65
2022/07/12 01:27:11;;;;;;;136.55;6.07;;;11.90;99.90;;;;;;5066691;28;20146;-64
2022/07/12 01:29:38;;;;;;;73.93;5.13;;;11.80;99.90;;;;;;5063768;28;20463;-64
2022/07/12 01:35:03;;;;;;;33.53;4.60;;;11.80;99.90;;;;;;5069089;28;20043;-63
2022/07/12 01:37:36;;;;;;;100.53;5.13;;;11.60;99.90;;;;;;5067223;28;20182;-63
2022/07/12 01:40:04;;;;;;;93.38;5.32;;;11.50;99.90;;;;;;5066706;28;20037;-63
2022/07/12 01:42:30;;;;;;;120.55;5.97;;;11.50;99.90;;;;;;5047633;28;20135;-63
2022/07/12 01:44:56;;;;;;;61.97;4.70;;;11.50;99.90;;;;;;5063135;28;20033;-63
2022/07/12 01:47:24;;;;;;;32.03;3.58;;;11.40;99.90;;;;;;5068697;28;20082;-63
2022/07/12 01:49:49;;;;;;;73.47;3.85;;;11.50;99.90;;;;;;5065439;28;20142;-63
2022/07/12 01:52:15;;;;;;;8.75;3.10;;;11.60;99.90;;;;;;5060592;28;21661;-63
2022/07/12 01:54:42;;;;;;;53.88;4.13;;;11.60;99.90;;;;;;5065725;28;20035;-63
2022/07/12 01:57:08;;;;;;;5.53;2.78;;;11.70;99.90;;;;;;5065071;28;20376;-64
2022/07/12 01:59:34;;;;;;;4.45;2.05;;;11.80;99.90;;;;;;5066639;28;20033;-64
2022/07/12 02:02:00;;;;;;;4.38;1.75;;;11.70;99.90;;;;;;5064539;28;20029;-63
2022/07/12 02:04:26;;;;;;;5.10;2.38;;;11.80;99.90;;;;;;5057851;28;20111;-63
2022/07/12 02:06:52;;;;;;;8.05;2.38;;;11.80;99.90;;;;;;5064703;28;20073;-64
2022/07/12 02:09:17;;;;;;;4.93;2.50;;;11.80;99.90;;;;;;5067312;28;20090;-64
2022/07/12 02:11:44;;;;;;;16.90;3.30;;;11.80;99.90;;;;;;5082176;28;20029;-64
2022/07/12 02:14:12;;;;;;;32.05;3.45;;;11.90;99.90;;;;;;5067400;28;20048;-64
2022/07/12 02:16:38;;;;;;;14.07;3.10;;;11.80;99.90;;;;;;5061824;28;20033;-64
2022/07/12 02:19:04;;;;;;;7.82;2.92;;;11.90;99.90;;;;;;5077983;28;20102;-64
2022/07/12 02:21:29;;;;;;;5.90;2.33;;;11.80;99.90;;;;;;5065465;28;20498;-64
2022/07/12 02:23:55;;;;;;;7.93;2.65;;;11.90;99.90;;;;;;5075909;28;20098;-64
2022/07/12 02:26:20;;;;;;;14.07;2.50;;;11.90;99.90;;;;;;5062034;28;20372;-64
2022/07/12 02:28:46;;;;;;;14.40;2.70;;;11.90;99.90;;;;;;5060634;28;20037;-64
2022/07/12 02:31:12;;;;;;;31.40;3.10;;;11.90;99.90;;;;;;5051296;28;20037;-65
2022/07/12 02:33:37;;;;;;;35.67;3.55;;;11.90;99.90;;;;;;5045710;28;20040;-64
2022/07/12 02:36:03;;;;;;;30.52;3.25;;;11.80;99.90;;;;;;5053559;28;20601;-64
2022/07/12 02:38:29;;;;;;;19.45;2.58;;;11.80;99.90;;;;;;5076045;28;20084;-64
2022/07/12 02:40:55;;;;;;;11.93;2.85;;;11.70;99.90;;;;;;5057806;28;20086;-64
2022/07/12 02:43:31;;;;;;;3.88;1.80;;;11.70;99.90;;;;;;5064607;28;20043;-65
2022/07/12 02:46:04;;;;;;;4.43;1.73;;;11.60;99.90;;;;;;5068134;28;20036;-64
2022/07/12 02:48:29;;;;;;;4.18;2.38;;;11.60;99.90;;;;;;5072187;28;20044;-65
2022/07/12 02:54:36;;;;;;;3.00;1.30;;;11.60;99.90;;;;;;5067380;28;20063;-64
2022/07/12 02:57:01;;;;;;;2.97;1.50;;;11.60;99.90;;;;;;5065802;28;20044;-65
2022/07/12 02:59:27;;;;;;;1.90;1.40;;;11.50;99.90;;;;;;5062562;28;20059;-65
2022/07/12 03:01:53;;;;;;;2.15;1.42;;;11.50;99.90;;;;;;5056170;28;20035;-65
2022/07/12 03:04:18;;;;;;;2.75;1.38;;;11.50;99.90;;;;;;5049191;28;20040;-65
2022/07/12 03:06:44;;;;;;;2.88;1.55;;;11.50;99.90;;;;;;5067131;28;20085;-65
2022/07/12 03:09:09;;;;;;;2.42;1.40;;;11.40;99.90;;;;;;5060987;28;20028;-65
2022/07/12 03:11:35;;;;;;;4.53;1.50;;;11.20;99.90;;;;;;5049220;28;20072;-65
2022/07/12 03:14:00;;;;;;;5.45;1.60;;;11.10;99.90;;;;;;5068717;28;20044;-65
2022/07/12 03:16:26;;;;;;;2.97;1.60;;;11.20;99.90;;;;;;5062741;28;20063;-66
2022/07/12 03:18:52;;;;;;;4.05;2.00;;;11.10;99.90;;;;;;5067006;28;20036;-65
2022/07/12 03:21:17;;;;;;;4.05;1.83;;;11.20;99.90;;;;;;5062336;28;20037;-65
2022/07/12 03:23:44;;;;;;;3.60;2.08;;;11.20;99.90;;;;;;5065598;28;20134;-65
2022/07/12 03:26:09;;;;;;;5.03;2.58;;;11.10;99.90;;;;;;5075141;28;20044;-65
2022/07/12 03:32:16;;;;;;;6.55;1.90;;;11.20;99.90;;;;;;5059842;28;20040;-65
2022/07/12 03:34:41;;;;;;;9.50;1.95;;;11.30;99.90;;;;;;5059559;28;20471;-65
2022/07/12 03:37:07;;;;;;;21.20;2.20;;;11.30;99.90;;;;;;5055913;28;20120;-65
2022/07/12 03:39:32;;;;;;;2.78;1.60;;;11.30;99.90;;;;;;5073473;28;20407;-65
2022/07/12 03:41:58;;;;;;;5.22;1.90;;;11.10;99.90;;;;;;5075390;28;20055;-65
2022/07/12 03:44:24;;;;;;;5.82;3.00;;;11.20;99.90;;;;;;5059897;28;20044;-65
2022/07/12 03:46:49;;;;;;;5.05;2.72;;;11.10;99.90;;;;;;5052189;28;20032;-65
2022/07/12 03:49:15;;;;;;;4.32;2.33;;;11.30;99.90;;;;;;5064544;28;20390;-65
2022/07/12 03:51:41;;;;;;;5.00;2.30;;;11.20;99.90;;;;;;5061788;28;20036;-65
2022/07/12 03:54:10;;;;;;;8.18;2.35;;;11.30;99.90;;;;;;5063210;28;20045;-65
2022/07/12 03:59:20;;;;;;;2.88;2.05;;;11.40;99.90;;;;;;5062076;28;20063;-65
2022/07/12 04:05:27;;;;;;;6.55;2.50;;;11.40;99.90;;;;;;5055765;28;20067;-65
2022/07/12 04:07:54;;;;;;;9.45;2.72;;;11.40;99.90;;;;;;5060352;28;20430;-65
2022/07/12 04:10:20;;;;;;;7.28;2.55;;;11.60;99.90;;;;;;5064723;28;20462;-66
2022/07/12 04:12:46;;;;;;;4.65;2.60;;;11.50;99.90;;;;;;5060611;28;20060;-65
2022/07/12 04:15:12;;;;;;;5.90;3.45;;;11.60;99.90;;;;;;5062050;28;20438;-65
2022/07/12 04:17:37;;;;;;;5.78;3.15;;;11.60;99.90;;;;;;5056434;28;20033;-65
2022/07/12 04:20:04;;;;;;;5.93;3.20;;;11.70;99.90;;;;;;5063534;28;20041;-65
2022/07/12 04:22:30;;;;;;;15.45;4.10;;;11.70;99.90;;;;;;5063871;28;20077;-65
2022/07/12 04:24:56;;;;;;;19.80;3.40;;;11.50;99.90;;;;;;5062968;28;20037;-65
2022/07/12 04:27:21;;;;;;;10.88;3.30;;;11.50;99.90;;;;;;5062781;28;20663;-66
2022/07/12 04:29:47;;;;;;;17.60;3.38;;;11.60;99.90;;;;;;5063383;28;20395;-65
2022/07/12 04:32:13;;;;;;;40.15;3.60;;;11.60;99.90;;;;;;5062181;28;20110;-65
2022/07/12 04:34:39;;;;;;;16.48;3.00;;;11.60;99.90;;;;;;5062987;28;20049;-65
2022/07/12 04:37:04;;;;;;;22.13;3.00;;;11.50;99.90;;;;;;5042135;28;20130;-66
2022/07/12 04:39:30;;;;;;;26.48;3.85;;;11.50;99.90;;;;;;5063835;28;20040;-65
2022/07/12 04:41:55;;;;;;;37.40;4.32;;;11.60;99.90;;;;;;5062832;28;20494;-65
2022/07/12 04:44:21;;;;;;;18.80;4.55;;;11.60;99.90;;;;;;5063465;28;20114;-64
2022/07/12 04:46:47;;;;;;;10.38;3.25;;;11.70;99.90;;;;;;5052890;28;20120;-64
2022/07/12 04:49:12;;;;;;;7.00;3.03;;;11.80;99.90;;;;;;5063537;28;20036;-64
2022/07/12 04:51:38;;;;;;;7.93;3.17;;;11.80;99.90;;;;;;5065869;28;20049;-64
2022/07/12 04:54:03;;;;;;;6.03;3.25;;;12.00;99.90;;;;;;5065172;28;20045;-65
2022/07/12 04:56:29;;;;;;;7.63;3.63;;;12.10;99.90;;;;;;5064357;28;20043;-65
2022/07/12 04:58:55;;;;;;;8.10;4.03;;;12.30;99.90;;;;;;5080711;28;20054;-65
2022/07/12 05:01:21;;;;;;;9.45;3.90;;;12.40;99.90;;;;;;5059907;28;20417;-65
2022/07/12 05:03:47;;;;;;;11.68;5.50;;;12.40;99.90;;;;;;5064053;28;20507;-66
2022/07/12 05:06:12;;;;;;;15.48;5.57;;;12.60;99.90;;;;;;5061809;28;20042;-66
2022/07/12 05:08:38;;;;;;;15.90;6.07;;;12.60;99.90;;;;;;5078493;28;20127;-66
2022/07/12 05:11:04;;;;;;;14.23;5.82;;;12.80;99.90;;;;;;5076526;28;20045;-66
2022/07/12 05:13:30;;;;;;;14.80;6.80;;;13.00;99.90;;;;;;5047206;28;20037;-66
2022/07/12 05:15:56;;;;;;;23.55;8.00;;;13.10;99.90;;;;;;5063686;28;20475;-66
2022/07/12 05:18:22;;;;;;;17.75;7.80;;;13.40;99.90;;;;;;5060546;28;20036;-67
2022/07/12 05:20:47;;;;;;;23.35;9.13;;;13.50;99.90;;;;;;5057207;28;20033;-67
2022/07/12 05:23:13;;;;;;;20.35;8.30;;;13.80;99.90;;;;;;5059446;28;20052;-67
2022/07/12 05:25:38;;;;;;;22.10;9.20;;;14.10;99.90;;;;;;5045901;28;20136;-68
2022/07/12 05:28:04;;;;;;;21.33;8.95;;;14.30;99.90;;;;;;5061108;28;20041;-67
2022/07/12 05:30:30;;;;;;;24.38;10.30;;;14.50;99.90;;;;;;5068347;28;20033;-68
2022/07/12 05:32:55;;;;;;;20.38;8.70;;;14.90;99.90;;;;;;5067805;28;20044;-67
2022/07/12 05:35:21;;;;;;;22.30;9.77;;;15.10;99.90;;;;;;5067654;28;20128;-66
2022/07/12 05:37:46;;;;;;;22.48;8.75;;;15.30;99.90;;;;;;5069187;28;20429;-66
2022/07/12 05:40:12;;;;;;;19.20;8.82;;;15.40;99.90;;;;;;5076689;28;20025;-67
2022/07/12 05:42:38;;;;;;;24.02;10.13;;;15.50;99.90;;;;;;5069790;28;20036;-66
2022/07/12 05:45:05;;;;;;;22.52;9.50;;;15.60;99.90;;;;;;5074084;28;20047;-67
2022/07/12 05:47:30;;;;;;;21.13;9.52;;;15.70;99.90;;;;;;5070614;28;20049;-66
2022/07/12 05:49:56;;;;;;;22.95;11.10;;;15.90;99.90;;;;;;5067030;28;20040;-67
2022/07/12 05:55:06;;;;;;;27.00;11.73;;;15.90;99.90;;;;;;5071807;28;20087;-66
2022/07/12 05:57:32;;;;;;;23.10;11.10;;;15.90;99.90;;;;;;5069497;28;20441;-66
2022/07/12 05:59:57;;;;;;;29.08;11.98;;;16.00;99.90;;;;;;5067948;28;20467;-66
2022/07/12 06:02:23;;;;;;;27.35;11.68;;;16.10;99.90;;;;;;5055681;28;20118;-67
2022/07/12 06:04:48;;;;;;;28.85;13.13;;;16.20;99.90;;;;;;5083975;28;20032;-66
2022/07/12 06:07:14;;;;;;;31.58;13.07;;;16.20;99.90;;;;;;5070242;28;20552;-66
2022/07/12 06:09:39;;;;;;;23.70;12.00;;;16.20;99.90;;;;;;5067888;28;20430;-66
2022/07/12 06:12:06;;;;;;;25.80;11.75;;;16.40;99.90;;;;;;5073909;28;20087;-65
2022/07/12 06:14:31;;;;;;;26.95;12.90;;;16.40;99.90;;;;;;5075855;28;20125;-65
2022/07/12 06:16:57;;;;;;;27.77;13.55;;;16.50;99.90;;;;;;5073839;28;20439;-65
2022/07/12 06:19:23;;;;;;;31.48;12.82;;;16.70;99.90;;;;;;5073936;28;20040;-65
2022/07/12 06:21:49;;;;;;;28.83;12.90;;;16.60;99.90;;;;;;5070904;28;20107;-65
2022/07/12 06:24:15;;;;;;;28.40;13.43;;;16.80;99.90;;;;;;5070662;28;20040;-65
2022/07/12 06:26:40;;;;;;;29.85;14.50;;;16.70;99.90;;;;;;5059575;28;20090;-66
2022/07/12 06:29:06;;;;;;;31.27;14.00;;;17.00;99.90;;;;;;5071942;28;20613;-65
2022/07/12 06:31:32;;;;;;;27.50;13.27;;;17.10;99.90;;;;;;5076535;28;20039;-65
2022/07/12 06:33:57;;;;;;;28.85;14.13;;;17.10;99.90;;;;;;5070392;28;20036;-65
2022/07/12 06:36:23;;;;;;;28.85;13.75;;;17.20;99.90;;;;;;5069776;28;20085;-65
2022/07/12 06:38:48;;;;;;;28.00;14.20;;;17.40;99.90;;;;;;5070451;28;20040;-66
2022/07/12 06:41:14;;;;;;;23.95;13.60;;;17.40;99.90;;;;;;5076326;28;20098;-66
2022/07/12 06:43:39;;;;;;;27.60;14.30;;;17.40;99.90;;;;;;5069339;28;20048;-65
2022/07/12 06:46:05;;;;;;;26.42;14.27;;;17.50;99.90;;;;;;5072942;28;20074;-66
2022/07/12 06:48:30;;;;;;;25.77;13.88;;;17.70;99.90;;;;;;5072331;28;20486;-66
2022/07/12 06:50:56;;;;;;;28.50;15.63;;;17.80;99.90;;;;;;5069531;28;20090;-65
2022/07/12 06:53:21;;;;;;;28.02;14.75;;;17.90;99.90;;;;;;5062528;28;20091;-65
2022/07/12 06:55:47;;;;;;;28.25;14.35;;;18.00;99.90;;;;;;5068920;28;20153;-65
2022/07/12 06:58:13;;;;;;;31.27;16.05;;;18.20;99.90;;;;;;5067302;28;20029;-65
2022/07/12 07:00:38;;;;;;;28.33;15.52;;;18.30;99.90;;;;;;5067665;28;20466;-65
2022/07/12 07:03:07;;;;;;;32.67;16.17;;;18.40;99.90;;;;;;5069009;28;20391;-65
2022/07/12 07:05:33;;;;;;;27.25;14.88;;;18.60;99.90;;;;;;5070118;28;20063;-65
2022/07/12 07:07:58;;;;;;;31.27;16.15;;;18.80;99.90;;;;;;5069648;28;20655;-65
2022/07/12 07:10:24;;;;;;;32.17;16.52;;;19.00;99.90;;;;;;5070322;28;20574;-65
2022/07/12 07:12:49;;;;;;;30.92;16.73;;;19.10;99.90;;;;;;5068799;28;20045;-65
2022/07/12 07:15:16;;;;;;;26.00;15.82;;;19.20;99.90;;;;;;5063199;28;20036;-65
2022/07/12 07:17:42;;;;;;;32.33;16.70;;;19.40;99.90;;;;;;5076436;28;20028;-64
2022/07/12 07:20:10;;;;;;;29.48;15.80;;;19.40;99.90;;;;;;5078440;28;20093;-65
2022/07/12 07:22:35;;;;;;;27.00;15.95;;;19.50;99.90;;;;;;5059580;28;20127;-65
2022/07/12 07:25:01;;;;;;;31.70;15.52;;;19.50;99.90;;;;;;5075294;28;20482;-65
2022/07/12 07:27:26;;;;;;;28.73;15.45;;;19.60;99.90;;;;;;5076831;28;20043;-65
2022/07/12 07:32:36;;;;;;;30.05;16.05;;;19.60;99.90;;;;;;5073182;28;20054;-65
2022/07/12 07:35:04;;;;;;;27.65;15.75;;;19.70;99.90;;;;;;5055182;28;20132;-65
2022/07/12 07:37:29;;;;;;;26.38;15.65;;;19.70;99.90;;;;;;5075694;28;20387;-65
2022/07/12 07:39:55;;;;;;;28.60;16.13;;;19.70;99.90;;;;;;5076579;28;20040;-65
2022/07/12 07:42:21;;;;;;;28.92;17.40;;;19.80;99.90;;;;;;5068738;28;20111;-65
2022/07/12 07:44:46;;;;;;;27.90;16.10;;;20.00;99.90;;;;;;5062901;28;20033;-65
2022/07/12 07:47:12;;;;;;;28.38;16.58;;;20.20;99.90;;;;;;5056590;28;20025;-66
2022/07/12 07:49:37;;;;;;;28.58;16.33;;;20.30;99.90;;;;;;5063050;28;20048;-65
2022/07/12 07:52:04;;;;;;;28.42;16.25;;;20.40;99.90;;;;;;5061384;28;20043;-65
2022/07/12 07:54:30;;;;;;;26.42;15.98;;;20.50;99.90;;;;;;5054073;28;20036;-65
2022/07/12 07:56:55;;;;;;;27.17;16.35;;;20.70;99.90;;;;;;5070358;28;20055;-65
2022/07/12 07:59:21;;;;;;;28.95;15.70;;;20.80;99.90;;;;;;5069563;28;20040;-65
2022/07/12 08:01:48;;;;;;;25.38;15.43;;;20.90;99.90;;;;;;5064913;28;20083;-65
2022/07/12 08:04:15;;;;;;;23.55;14.90;;;21.10;99.90;;;;;;5050584;28;20132;-65
2022/07/12 08:06:41;;;;;;;21.55;13.57;;;21.10;99.90;;;;;;5050376;28;20040;-65
2022/07/12 08:09:08;;;;;;;25.27;14.23;;;21.20;99.90;;;;;;5070285;28;20040;-65
2022/07/12 08:11:34;;;;;;;22.10;13.68;;;21.40;99.90;;;;;;5070762;28;20044;-65
2022/07/12 08:14:00;;;;;;;24.33;14.20;;;21.60;99.90;;;;;;5053517;28;20041;-66
2022/07/12 08:16:26;;;;;;;20.83;12.48;;;21.70;99.90;;;;;;5066348;28;20043;-65
2022/07/12 08:18:52;;;;;;;19.23;11.88;;;21.80;99.90;;;;;;5068164;28;20085;-66
2022/07/12 08:21:18;;;;;;;19.75;12.30;;;21.90;99.90;;;;;;5069316;28;20138;-66
2022/07/12 08:23:44;;;;;;;22.70;13.57;;;21.90;99.90;;;;;;5064643;28;20495;-65
2022/07/12 08:26:09;;;;;;;20.98;11.93;;;21.80;99.90;;;;;;5069262;28;20044;-65
2022/07/12 08:28:35;;;;;;;16.95;11.25;;;21.70;99.90;;;;;;5070615;28;20411;-65
2022/07/12 08:31:00;;;;;;;20.67;12.63;;;21.60;99.90;;;;;;5070090;28;20043;-65
2022/07/12 08:33:26;;;;;;;17.95;11.45;;;21.50;99.90;;;;;;5072030;28;20444;-65
2022/07/12 08:35:52;;;;;;;16.20;10.10;;;21.50;99.90;;;;;;5064192;28;20032;-66
2022/07/12 08:38:17;;;;;;;16.30;9.43;;;21.50;99.90;;;;;;5073675;28;20063;-65
2022/07/12 08:40:43;;;;;;;13.57;8.77;;;21.50;99.90;;;;;;5072455;28;20040;-65
2022/07/12 08:43:09;;;;;;;20.70;10.57;;;21.50;99.90;;;;;;5073893;28;20049;-66
2022/07/12 08:45:40;;;;;;;14.30;9.65;;;21.60;99.90;;;;;;5073776;28;20041;-65
2022/07/12 08:48:06;;;;;;;17.90;10.70;;;21.60;99.90;;;;;;5071497;28;20055;-65
2022/07/12 08:50:33;;;;;;;16.48;10.38;;;21.70;99.90;;;;;;5074170;28;20048;-66
2022/07/12 08:52:58;;;;;;;15.38;9.90;;;21.70;99.90;;;;;;5068105;28;20040;-66
2022/07/12 08:55:34;;;;;;;17.63;10.32;;;21.80;99.90;;;;;;5053258;28;20063;-66
2022/07/12 08:58:02;;;;;;;16.50;9.65;;;21.90;99.90;;;;;;5073103;28;20044;-65
2022/07/12 09:00:29;;;;;;;17.73;10.52;;;22.00;99.90;;;;;;5074305;28;20040;-65
2022/07/12 09:03:06;;;;;;;16.73;11.07;;;22.10;99.90;;;;;;5073545;28;20050;-65
2022/07/12 09:05:34;;;;;;;15.15;9.75;;;22.10;99.90;;;;;;5067435;28;20047;-65
2022/07/12 09:08:06;;;;;;;14.50;8.70;;;22.20;99.90;;;;;;5055616;28;20435;-66
2022/07/12 09:10:34;;;;;;;17.85;10.85;;;22.30;99.90;;;;;;5072679;28;20220;-65
2022/07/12 09:13:00;;;;;;;14.73;9.43;;;22.30;99.90;;;;;;5073328;28;20503;-66
2022/07/12 09:15:27;;;;;;;45.78;9.88;;;22.40;99.90;;;;;;5073714;28;20029;-65
2022/07/12 09:18:03;;;;;;;15.38;8.68;;;22.40;99.90;;;;;;5071594;28;20072;-66
2022/07/12 09:20:30;;;;;;;16.73;10.43;;;22.50;99.90;;;;;;5065091;28;20051;-66
2022/07/12 09:23:06;;;;;;;15.30;9.73;;;22.70;99.90;;;;;;5054873;28;20041;-66
2022/07/12 09:25:32;;;;;;;19.83;10.10;;;22.70;99.90;;;;;;5072991;28;20044;-66
2022/07/12 09:27:59;;;;;;;18.38;10.02;;;22.70;99.90;;;;;;5072167;28;20162;-65
2022/07/12 09:30:27;;;;;;;16.33;10.25;;;22.70;99.90;;;;;;5072072;28;20103;-66
2022/07/12 09:36:08;;;;;;;18.00;10.35;;;22.90;99.90;;;;;;5062534;28;20081;-66
2022/07/12 09:38:39;;;;;;;16.75;9.90;;;23.00;99.90;;;;;;5055513;28;20131;-65
2022/07/12 09:41:06;;;;;;;19.85;11.00;;;23.10;99.90;;;;;;5073479;28;20434;-65
2022/07/12 09:43:32;;;;;;;16.02;10.27;;;23.10;99.90;;;;;;5071431;28;20160;-66
2022/07/12 09:45:59;;;;;;;17.98;10.00;;;23.20;99.90;;;;;;5072021;28;20076;-65
2022/07/12 09:48:29;;;;;;;18.30;10.20;;;23.20;99.90;;;;;;5072128;28;20079;-65
2022/07/12 09:50:58;;;;;;;14.77;9.10;;;23.30;99.90;;;;;;5071961;28;20076;-66
2022/07/12 09:53:37;;;;;;;16.48;9.80;;;23.50;99.90;;;;;;5070534;28;20033;-66
2022/07/12 09:56:05;;;;;;;19.73;9.73;;;23.70;99.90;;;;;;5051860;28;20113;-66
2022/07/12 09:58:36;;;;;;;15.50;9.65;;;23.90;99.90;;;;;;5058358;28;20487;-66
2022/07/12 10:01:02;;;;;;;28.17;9.57;;;23.90;99.90;;;;;;5069399;28;20040;-66
2022/07/12 10:03:31;;;;;;;15.82;8.85;;;24.00;99.90;;;;;;5071388;28;20047;-66
2022/07/12 10:06:00;;;;;;;17.50;9.55;;;24.10;99.90;;;;;;5072345;28;20394;-66
2022/07/12 10:08:26;;;;;;;11.45;7.10;;;24.00;99.90;;;;;;5069636;28;20446;-66
2022/07/12 10:10:51;;;;;;;11.52;7.15;;;23.90;99.90;;;;;;5053848;28;20115;-65
2022/07/12 10:13:20;;;;;;;10.75;6.72;;;23.80;99.90;;;;;;5068615;28;20049;-66
2022/07/12 10:15:48;;;;;;;16.45;8.48;;;23.80;99.90;;;;;;5056361;28;20049;-66
2022/07/12 10:18:19;;;;;;;13.40;8.95;;;23.90;99.90;;;;;;5082670;28;20048;-66
2022/07/12 10:20:47;;;;;;;15.23;7.88;;;24.00;99.90;;;;;;5066919;28;20048;-66
2022/07/12 10:23:19;;;;;;;15.00;7.70;;;24.20;99.90;;;;;;5064718;28;20437;-65
2022/07/12 10:25:47;;;;;;;13.25;8.65;;;24.20;99.90;;;;;;5067054;28;20530;-65
2022/07/12 10:28:13;;;;;;;13.52;9.02;;;24.10;99.90;;;;;;5069907;28;20399;-65
2022/07/12 10:30:47;;;;;;;13.75;8.27;;;24.10;99.90;;;;;;5066563;28;20052;-65
2022/07/12 10:33:23;;;;;;;13.40;8.82;;;24.10;99.90;;;;;;5067049;28;20051;-65
2022/07/12 10:36:07;;;;;;;19.33;10.88;;;24.10;99.90;;;;;;5071373;28;20082;-65
2022/07/12 10:38:34;;;;;;;16.10;10.95;;;24.20;99.90;;;;;;5070132;28;20041;-65
2022/07/12 10:41:21;;;;;;;18.80;10.80;;;24.20;99.90;;;;;;5054941;28;20046;-65
2022/07/12 10:44:06;;;;;;;13.82;8.38;;;24.20;99.90;;;;;;5050917;28;20076;-66
2022/07/12 10:46:33;;;;;;;15.98;8.82;;;24.30;99.90;;;;;;5050536;28;20492;-65
2022/07/12 10:49:27;;;;;;;11.52;7.72;;;24.50;99.90;;;;;;5069188;28;20450;-65
2022/07/12 10:52:11;;;;;;;21.42;9.45;;;24.70;99.90;;;;;;5071346;28;20044;-66
2022/07/12 10:54:47;;;;;;;14.35;8.52;;;24.80;99.90;;;;;;5051007;28;20052;-66
2022/07/12 10:57:13;;;;;;;13.43;7.85;;;24.90;99.90;;;;;;5049647;28;20049;-66
2022/07/12 10:59:39;;;;;;;12.95;7.38;;;25.00;99.90;;;;;;5052700;28;20048;-67
2022/07/12 11:02:07;;;;;;;9.43;6.90;;;25.00;99.90;;;;;;5084152;28;20064;-65
2022/07/12 11:04:33;;;;;;;9.88;6.65;;;25.10;99.90;;;;;;5087735;28;20044;-66
2022/07/12 11:07:02;;;;;;;15.90;8.68;;;25.10;99.90;;;;;;5069584;28;20071;-65
2022/07/12 11:09:28;;;;;;;14.38;8.52;;;25.20;99.90;;;;;;5070665;28;20503;-66
2022/07/12 11:11:54;;;;;;;13.40;8.57;;;25.20;99.90;;;;;;5087701;28;20066;-66
2022/07/12 11:14:22;;;;;;;10.07;8.02;;;25.10;99.90;;;;;;5053998;28;20127;-64
2022/07/12 11:16:49;;;;;;;14.23;8.40;;;25.00;99.90;;;;;;5050967;28;20037;-64
2022/07/12 11:19:15;;;;;;;14.57;8.52;;;24.90;99.90;;;;;;5050667;28;20072;-65
2022/07/12 11:21:48;;;;;;;13.43;8.90;;;24.80;99.90;;;;;;5050570;28;20080;-66
2022/07/12 11:24:19;;;;;;;13.73;8.05;;;24.60;99.90;;;;;;5065610;28;20044;-65
2022/07/12 11:26:45;;;;;;;11.98;7.50;;;24.50;99.90;;;;;;5068986;28;20051;-65
2022/07/12 11:29:11;;;;;;;13.48;7.15;;;24.50;99.90;;;;;;5070540;28;20487;-65
2022/07/12 11:31:37;;;;;;;9.15;5.82;;;24.50;99.90;;;;;;5070939;28;20044;-65
2022/07/12 11:34:03;;;;;;;11.05;5.85;;;24.50;99.90;;;;;;5057324;28;20131;-66
2022/07/12 11:36:30;;;;;;;8.52;5.43;;;24.50;99.90;;;;;;5066239;28;20036;-65
2022/07/12 11:38:56;;;;;;;11.20;4.72;;;24.40;99.90;;;;;;5051172;28;20551;-66
2022/07/12 11:41:24;;;;;;;8.77;5.57;;;24.40;99.90;;;;;;5052589;28;20115;-66
2022/07/12 11:43:50;;;;;;;14.18;6.30;;;24.50;99.90;;;;;;5060413;28;20044;-66
2022/07/12 11:46:16;;;;;;;9.55;5.50;;;24.70;99.90;;;;;;5068241;28;20475;-66
2022/07/12 11:48:42;;;;;;;6.90;4.72;;;24.80;99.90;;;;;;5070040;28;20047;-65
2022/07/12 11:51:10;;;;;;;7.18;4.32;;;25.00;99.90;;;;;;5070318;28;20044;-64
2022/07/12 11:53:37;;;;;;;7.75;4.70;;;25.10;99.90;;;;;;5070085;28;20044;-65
2022/07/12 11:56:05;;;;;;;8.25;4.95;;;25.10;99.90;;;;;;5069594;28;20517;-65
2022/07/12 11:58:37;;;;;;;8.40;5.47;;;25.20;99.90;;;;;;5069585;28;20430;-65
2022/07/12 12:01:04;;;;;;;7.20;5.57;;;25.20;99.90;;;;;;5071140;28;20047;-65
2022/07/12 12:03:32;;;;;;;10.60;6.75;;;25.30;99.90;;;;;;5069631;28;20403;-65
2022/07/12 12:05:58;;;;;;;18.33;7.35;;;25.40;99.90;;;;;;5070646;28;20048;-65
2022/07/12 12:08:24;;;;;;;11.32;6.50;;;25.40;99.90;;;;;;5067838;28;20463;-66
2022/07/12 12:10:58;;;;;;;7.63;5.93;;;25.50;99.90;;;;;;5068536;28;20115;-65
2022/07/12 12:13:29;;;;;;;12.10;7.82;;;25.60;99.90;;;;;;5068171;28;20040;-65
2022/07/12 12:15:56;;;;;;;9.05;7.13;;;25.50;99.90;;;;;;5059591;28;20048;-65
2022/07/12 12:18:38;;;;;;;11.30;6.30;;;25.60;99.90;;;;;;5061511;28;20074;-65
2022/07/12 12:21:12;;;;;;;9.88;7.47;;;25.80;99.90;;;;;;5069680;28;20380;-65
2022/07/12 12:23:39;;;;;;;11.10;7.82;;;25.90;99.90;;;;;;5068729;28;20182;-65
2022/07/12 12:26:20;;;;;;;9.77;6.43;;;25.90;99.90;;;;;;5068716;28;20098;-66
2022/07/12 12:28:54;;;;;;;11.13;6.10;;;26.00;99.90;;;;;;5051987;28;20037;-65
2022/07/12 12:31:23;;;;;;;9.57;6.80;;;26.00;99.90;;;;;;5049808;28;20041;-66
2022/07/12 12:33:56;;;;;;;13.10;7.30;;;26.10;99.90;;;;;;5052668;28;20033;-66
2022/07/12 12:36:27;;;;;;;10.48;6.30;;;26.10;99.90;;;;;;5061200;28;20053;-66
2022/07/12 12:38:57;;;;;;;13.30;7.20;;;26.20;99.90;;;;;;5065780;28;20055;-65
2022/07/12 12:41:24;;;;;;;11.15;6.82;;;26.20;99.90;;;;;;5058041;28;20147;-65
2022/07/12 12:44:03;;;;;;;12.73;9.18;;;26.20;99.90;;;;;;5070952;28;20052;-65
2022/07/12 12:46:46;;;;;;;10.80;7.53;;;26.20;99.90;;;;;;5070234;28;20040;-65
2022/07/12 12:49:12;;;;;;;10.27;6.18;;;26.20;99.90;;;;;;5068337;28;20045;-67
2022/07/12 12:52:00;;;;;;;6.03;5.15;;;26.30;99.90;;;;;;5050071;28;20048;-65
2022/07/12 12:54:37;;;;;;;7.95;5.47;;;26.30;99.90;;;;;;5065656;28;20068;-65
2022/07/12 12:57:04;;;;;;;6.75;5.63;;;26.40;99.90;;;;;;5068697;28;20068;-66
2022/07/12 12:59:30;;;;;;;9.90;6.35;;;26.40;99.90;;;;;;5067734;28;20051;-65
2022/07/12 13:01:56;;;;;;;17.10;7.22;;;26.30;99.90;;;;;;5064866;28;20032;-66
2022/07/12 13:04:21;;;;;;;9.70;6.07;;;26.30;99.90;;;;;;5069187;28;20461;-65